Terminal Aerodrome Forecast
Issued by NWS Charleston, WV

Current Version | Previous Version | Graphics & Text | Print | Product List | Glossary On
Versions: 1 2 3 4 5 6 7 8 9 10 11 12 13 14 15 16 17 18 19 20 21 22 23
000
FTUS41 KRLX 252300
TAFEKN
TAF
KEKN 252323Z 2600/2624 00000KT P6SM FEW250
     FM260600 00000KT 4SM BR FEW250
     FM260700 00000KT 2SM BR SKC
     FM260800 00000KT 3/4SM BR SCT001
     FM260900 00000KT 1/4SM FG VV001
     FM261230 00000KT 2SM BR SCT001
     FM261300 VRB03KT P6SM FEW045=

USA.gov is the U.S. government's official web portal to all federal, state and local government web resources and services.